Time;durP1;ratioP1;P1;durP2;ratioP2;P2;SDS_P1;SDS_P2;PMS_P1;PMS_P2;Temp;Humidity;BMP_temperature;BMP_pressure;BME280_temperature;BME280_humidity;BME280_pressure;Samples;Min_cycle;Max_cycle;Signal;HPM_P1;HPM_P2
2023/06/19 00:00:54;;;;;;;;;18.50;17.00;;;;;15.70;95.81;99524.66;6279918;20;2825315;-57
2023/06/19 00:03:22;;;;;;;;;21.50;19.50;;;;;15.57;95.63;99521.25;6278091;20;2830567;-58
2023/06/19 00:05:51;;;;;;;;;20.00;18.50;;;;;15.47;95.91;99518.44;6273768;20;2824238;-57
2023/06/19 00:08:18;;;;;;;;;20.00;18.00;;;;;15.01;98.28;99522.31;6266706;20;2491953;-56
2023/06/19 00:10:48;;;;;;;;;17.50;17.00;;;;;15.36;97.39;99521.22;6266807;20;2829549;-58
2023/06/19 00:13:16;;;;;;;;;17.00;17.00;;;;;15.14;96.98;99523.00;6273307;20;2831612;-56
2023/06/19 00:15:45;;;;;;;;;19.50;19.50;;;;;15.20;96.88;99521.63;6276891;20;2842109;-58
2023/06/19 00:18:13;;;;;;;;;17.00;17.00;;;;;15.16;96.99;99525.56;6278043;20;2832547;-53
2023/06/19 00:20:41;;;;;;;;;15.67;15.67;;;;;15.37;97.47;99528.31;6280618;20;3551334;-57
2023/06/19 00:23:13;;;;;;;;;20.00;19.50;;;;;15.41;97.06;99529.81;6278260;20;2836886;-58
2023/06/19 00:25:43;;;;;;;;;21.00;20.33;;;;;15.45;97.51;99528.53;6284331;20;3568091;-54
2023/06/19 00:28:13;;;;;;;;;25.00;22.00;;;;;15.49;97.26;99527.31;6312292;20;3582687;-57
2023/06/19 00:30:42;;;;;;;;;22.50;22.00;;;;;15.44;97.44;99526.84;6280448;20;2830573;-58
2023/06/19 00:33:10;;;;;;;;;21.00;21.00;;;;;15.35;98.18;99531.19;6276055;20;2841938;-54
2023/06/19 00:35:38;;;;;;;;;21.33;19.67;;;;;15.45;98.20;99531.25;6277683;20;3575271;-58
2023/06/19 00:38:07;;;;;;;;;22.00;21.00;;;;;15.47;97.73;99517.59;6277715;20;2847222;-56
2023/06/19 00:40:36;;;;;;;;;23.67;23.67;;;;;15.44;97.79;99524.13;6277663;20;2844126;-55
2023/06/19 00:43:06;;;;;;;;;21.00;21.00;;;;;15.26;98.13;99523.81;6314007;20;3564862;-57
2023/06/19 00:45:36;;;;;;;;;19.33;19.33;;;;;15.28;99.77;99515.59;6277234;20;2836824;-58
2023/06/19 00:48:05;;;;;;;;;20.50;20.50;;;;;15.47;97.94;99523.84;6313903;20;2835692;-58
2023/06/19 00:50:33;;;;;;;;;22.50;20.50;;;;;15.42;97.85;99520.69;6279924;20;2852343;-56
2023/06/19 00:53:04;;;;;;;;;20.00;18.00;;;;;15.12;99.30;99514.16;6282867;20;2496151;-57
2023/06/19 00:55:33;;;;;;;;;22.00;19.50;;;;;15.25;99.03;99519.41;6282637;20;2841966;-55
2023/06/19 00:58:02;;;;;;;;;21.00;17.50;;;;;15.06;99.69;99520.09;6281105;20;2826348;-56
2023/06/19 01:00:31;;;;;;;;;18.00;17.00;;;;;15.13;99.78;99521.28;6280518;20;2841952;-57
2023/06/19 01:02:59;;;;;;;;;17.50;17.00;;;;;15.01;99.33;99516.91;6282257;20;2832587;-58
2023/06/19 01:05:27;;;;;;;;;17.00;17.00;;;;;15.12;99.69;99519.56;6280595;20;2835727;-55
2023/06/19 01:08:28;;;;;;;;;17.50;17.50;;;;;14.96;100.00;99507.47;6282303;20;2831650;-58
2023/06/19 01:11:00;;;;;;;;;23.00;20.50;;;;;14.73;100.00;99501.25;6284434;20;2822211;-56
2023/06/19 01:13:51;;;;;;;;;19.00;18.50;;;;;14.56;100.00;99503.47;6281775;20;2832671;-58
2023/06/19 01:16:21;;;;;;;;;21.50;18.50;;;;;14.53;100.00;99501.00;6280739;20;2832700;-58
2023/06/19 01:18:50;;;;;;;;;21.00;20.50;;;;;14.54;99.57;99510.00;6284150;20;2841109;-58
2023/06/19 01:21:19;;;;;;;;;22.00;21.00;;;;;14.16;100.00;99514.72;6283704;20;2841999;-57
2023/06/19 01:23:47;;;;;;;;;20.00;19.00;;;;;13.87;100.00;99518.84;6284230;20;2779485;-57
2023/06/19 01:26:18;;;;;;;;;21.00;17.50;;;;;13.94;100.00;99514.69;6278911;20;2844077;-58
2023/06/19 01:28:46;;;;;;;;;19.50;19.50;;;;;14.11;100.00;99522.31;6279006;20;2500460;-58
2023/06/19 01:31:31;;;;;;;;;23.50;20.50;;;;;14.11;100.00;99521.47;6280992;20;2848276;-58
2023/06/19 01:34:04;;;;;;;;;21.50;20.50;;;;;13.93;100.00;99524.66;6279977;20;2831545;-56
2023/06/19 01:36:32;;;;;;;;;21.00;20.00;;;;;13.76;100.00;99527.78;6277237;20;2844018;-58
2023/06/19 01:39:01;;;;;;;;;25.00;21.00;;;;;14.10;100.00;99530.56;6284708;20;3589929;-55
2023/06/19 01:41:32;;;;;;;;;25.00;22.00;;;;;14.30;100.00;99537.06;6280029;20;2833745;-58
2023/06/19 01:44:00;;;;;;;;;18.00;18.00;;;;;14.25;100.00;99529.34;6280399;20;2839861;-59
2023/06/19 01:46:29;;;;;;;;;20.00;19.00;;;;;14.43;100.00;99527.88;6282336;20;2835736;-57
2023/06/19 01:48:57;;;;;;;;;26.00;24.50;;;;;14.54;100.00;99524.34;6280838;20;2850383;-56
2023/06/19 01:51:25;;;;;;;;;20.00;20.00;;;;;14.43;100.00;99516.22;6283178;20;2834748;-58
2023/06/19 01:53:53;;;;;;;;;21.00;21.00;;;;;14.45;100.00;99519.63;6281514;20;2500518;-56
2023/06/19 01:56:24;;;;;;;;;20.50;20.00;;;;;14.46;100.00;99522.22;6282495;20;2854451;-55
2023/06/19 01:58:52;;;;;;;;;23.00;21.00;;;;;14.74;100.00;99517.31;6276336;20;2848356;-57
2023/06/19 02:01:20;;;;;;;;;20.00;20.00;;;;;14.55;100.00;99509.84;6279860;20;2840961;-57
2023/06/19 02:03:48;;;;;;;;;27.00;24.50;;;;;14.57;100.00;99518.69;6278429;20;2842126;-58
2023/06/19 02:06:17;;;;;;;;;21.67;21.67;;;;;14.54;100.00;99515.38;6286339;20;3579541;-58
2023/06/19 02:08:46;;;;;;;;;24.00;23.00;;;;;14.67;100.00;99522.38;6281309;20;2841128;-58
2023/06/19 02:11:15;;;;;;;;;20.67;20.67;;;;;14.65;100.00;99526.19;6315041;20;3569106;-58
2023/06/19 02:13:43;;;;;;;;;25.67;22.67;;;;;14.56;100.00;99527.78;6285003;20;3583588;-58
2023/06/19 02:16:11;;;;;;;;;28.00;21.00;;;;;14.40;100.00;99527.25;6278028;20;2845065;-58
2023/06/19 02:18:39;;;;;;;;;24.33;24.33;;;;;14.48;100.00;99532.91;6284409;20;3585130;-58
2023/06/19 02:21:08;;;;;;;;;27.00;26.67;;;;;14.61;100.00;99522.88;6278291;20;2850573;-55
2023/06/19 02:23:36;;;;;;;;;24.33;24.33;;;;;14.61;100.00;99530.97;6315076;20;3589993;-59
2023/06/19 02:26:05;;;;;;;;;22.50;21.00;;;;;14.65;100.00;99534.28;6280649;20;2835743;-58
2023/06/19 02:28:33;;;;;;;;;25.00;23.50;;;;;14.52;100.00;99531.69;6281386;20;2850395;-58
2023/06/19 02:31:01;;;;;;;;;28.00;25.00;;;;;14.60;100.00;99529.25;6286324;20;3597149;-58
2023/06/19 02:33:29;;;;;;;;;25.33;25.33;;;;;14.50;100.00;99533.63;6283728;20;3590917;-55
2023/06/19 02:35:58;;;;;;;;;28.00;23.67;;;;;14.59;100.00;99542.91;6278310;20;3596221;-56
2023/06/19 02:38:30;;;;;;;;;25.67;23.33;;;;;14.19;100.00;99540.63;6314794;20;3581540;-59
2023/06/19 02:41:01;;;;;;;;;25.33;25.33;;;;;14.22;100.00;99535.84;6280790;20;2855688;-56
2023/06/19 02:43:30;;;;;;;;;24.67;24.67;;;;;14.44;100.00;99539.53;6314228;20;3579464;-57
2023/06/19 02:45:58;;;;;;;;;26.00;23.33;;;;;14.21;100.00;99539.50;6281922;20;3582560;-55
2023/06/19 02:48:28;;;;;;;;;24.67;22.67;;;;;14.30;100.00;99545.16;6279496;20;2844048;-56
2023/06/19 02:50:56;;;;;;;;;25.00;25.00;;;;;14.20;100.00;99540.50;6314857;20;3600324;-54
2023/06/19 02:53:25;;;;;;;;;26.33;24.00;;;;;14.46;100.00;99548.38;6281638;20;2846135;-56
2023/06/19 02:55:53;;;;;;;;;26.33;24.67;;;;;14.37;100.00;99546.41;6313719;20;3583535;-58
2023/06/19 02:58:22;;;;;;;;;24.00;23.67;;;;;14.44;100.00;99550.34;6277307;20;2847155;-56
2023/06/19 03:00:50;;;;;;;;;29.00;27.67;;;;;14.22;100.00;99541.25;6310854;20;3604448;-59
2023/06/19 03:03:20;;;;;;;;;30.00;25.33;;;;;14.30;100.00;99547.88;6280137;20;3598413;-58
2023/06/19 03:05:48;;;;;;;;;28.67;25.67;;;;;14.32;100.00;99540.50;6312955;20;3601324;-55
2023/06/19 03:08:17;;;;;;;;;31.00;27.33;;;;;14.48;100.00;99546.41;6282759;20;3611781;-57
2023/06/19 03:10:45;;;;;;;;;25.33;25.33;;;;;14.31;100.00;99550.47;6310739;20;3596089;-57
2023/06/19 03:13:14;;;;;;;;;24.00;23.33;;;;;14.41;100.00;99540.66;6282490;20;2846175;-59
2023/06/19 03:15:43;;;;;;;;;29.00;27.00;;;;;14.51;100.00;99540.78;6310509;20;2850377;-59
2023/06/19 03:18:13;;;;;;;;;28.33;22.33;;;;;14.50;100.00;99536.34;6312818;20;3591117;-57
2023/06/19 03:20:41;;;;;;;;;23.00;22.67;;;;;14.59;100.00;99543.75;6314546;20;3589856;-59
2023/06/19 03:23:10;;;;;;;;;33.00;26.33;;;;;14.60;100.00;99540.06;6280256;20;3612184;-58
2023/06/19 03:25:42;;;;;;;;;22.00;21.67;;;;;14.66;100.00;99536.84;6313861;20;3580471;-59
2023/06/19 03:28:10;;;;;;;;;25.33;23.00;;;;;14.63;100.00;99544.34;6278729;20;3578486;-58
2023/06/19 03:30:39;;;;;;;;;28.33;25.67;;;;;14.60;100.00;99540.06;6278550;20;3586854;-57
2023/06/19 03:33:08;;;;;;;;;23.33;21.67;;;;;14.65;99.74;99542.41;6313310;20;3572312;-58
2023/06/19 03:35:36;;;;;;;;;23.33;23.33;;;;;14.80;99.44;99540.31;6315149;20;3570053;-56
2023/06/19 03:38:05;;;;;;;;;27.33;26.33;;;;;14.69;99.69;99539.31;6278709;20;3596077;-57
2023/06/19 03:40:34;;;;;;;;;27.00;25.00;;;;;14.82;99.90;99543.72;6280081;20;3602384;-57
2023/06/19 03:43:02;;;;;;;;;26.33;24.67;;;;;14.74;100.00;99543.47;6314366;20;3609646;-59
2023/06/19 03:45:31;;;;;;;;;29.67;26.00;;;;;15.19;99.29;99546.94;6278326;20;3591381;-58
2023/06/19 03:48:00;;;;;;;;;23.67;22.00;;;;;15.30;98.97;99538.81;6313340;20;3591087;-60
2023/06/19 03:50:28;;;;;;;;;28.50;26.00;;;;;15.34;99.72;99544.81;6278646;20;2857567;-56
2023/06/19 03:52:56;;;;;;;;;27.00;25.00;;;;;15.46;98.23;99543.81;6283566;20;3599220;-57
2023/06/19 03:55:24;;;;;;;;;27.67;24.00;;;;;15.56;99.38;99544.75;6280640;20;3595048;-59
2023/06/19 03:57:53;;;;;;;;;23.00;23.00;;;;;15.31;100.00;99540.53;6276587;20;2840867;-58
2023/06/19 04:00:21;;;;;;;;;14.00;13.00;;;;;15.44;100.00;99545.78;6312797;20;2790903;-59
2023/06/19 04:02:50;;;;;;;;;28.33;26.33;;;;;15.47;98.27;99545.50;6283382;20;3600285;-58
2023/06/19 04:05:22;;;;;;;;;25.33;24.67;;;;;15.65;97.69;99547.66;6279132;20;2851489;-59
2023/06/19 04:07:50;;;;;;;;;24.33;23.33;;;;;15.62;98.47;99547.94;6315016;20;3582564;-58
2023/06/19 04:10:18;;;;;;;;;31.00;24.00;;;;;15.64;98.02;99545.91;6281253;20;3600293;-58
2023/06/19 04:12:47;;;;;;;;;26.67;24.00;;;;;15.77;97.07;99552.03;6277377;20;3596232;-58
2023/06/19 04:15:16;;;;;;;;;27.67;24.67;;;;;15.70;98.79;99548.16;6313705;20;3599357;-58
2023/06/19 04:17:44;;;;;;;;;24.00;24.00;;;;;15.93;97.13;99554.28;6282174;20;3602343;-55
2023/06/19 04:20:12;;;;;;;;;27.67;27.67;;;;;16.11;96.90;99562.69;6278208;20;3604409;-56
2023/06/19 04:22:41;;;;;;;;;28.33;26.33;;;;;16.17;97.13;99559.47;6283984;20;3598229;-57
2023/06/19 04:25:11;;;;;;;;;24.33;23.00;;;;;16.45;95.96;99572.28;6283442;20;3592058;-59
2023/06/19 04:27:39;;;;;;;;;23.33;19.67;;;;;16.61;94.98;99568.22;6314822;20;3570126;-57
2023/06/19 04:30:08;;;;;;;;;28.00;24.67;;;;;16.70;94.67;99574.72;6315372;20;3600383;-56
2023/06/19 04:32:40;;;;;;;;;23.00;22.67;;;;;16.42;95.98;99580.69;6286949;20;3579445;-58
2023/06/19 04:35:10;;;;;;;;;27.00;25.67;;;;;16.77;95.02;99582.19;6287568;20;3591510;-56
2023/06/19 04:37:39;;;;;;;;;26.33;25.33;;;;;16.92;94.09;99576.38;6282152;20;2851441;-56
2023/06/19 04:40:08;;;;;;;;;24.67;23.33;;;;;17.11;93.17;99582.75;6316681;20;3587758;-55
2023/06/19 04:42:38;;;;;;;;;27.67;27.67;;;;;17.13;94.24;99579.88;6283006;20;3608584;-56
2023/06/19 04:45:07;;;;;;;;;28.33;26.67;;;;;17.33;93.34;99587.06;6316546;20;3602351;-58
2023/06/19 04:47:36;;;;;;;;;25.50;23.00;;;;;17.41;93.13;99588.22;6283390;20;2842091;-58
2023/06/19 04:50:21;;;;;;;;;24.33;23.00;;;;;17.65;91.90;99585.09;6286370;20;3563887;-56
2023/06/19 04:52:51;;;;;;;;;26.00;25.00;;;;;17.66;92.52;99584.94;6282956;20;2862865;-56
2023/06/19 04:55:19;;;;;;;;;26.67;24.00;;;;;17.86;91.58;99585.00;6315693;20;3591007;-58
2023/06/19 04:57:48;;;;;;;;;25.00;21.33;;;;;17.92;90.45;99589.84;6285034;20;3571222;-58
2023/06/19 05:00:19;;;;;;;;;24.67;24.00;;;;;17.82;90.49;99595.25;6281803;20;3595166;-58
2023/06/19 05:02:47;;;;;;;;;27.00;26.33;;;;;17.65;92.35;99595.97;6284322;20;3603403;-56
2023/06/19 05:05:17;;;;;;;;;22.33;22.00;;;;;17.64;92.50;99600.53;6285520;20;3587752;-57
2023/06/19 05:07:49;;;;;;;;;26.67;25.00;;;;;18.00;91.05;99600.84;6286950;20;3590984;-58
2023/06/19 05:10:17;;;;;;;;;23.33;23.00;;;;;18.54;87.92;99599.31;6284810;20;3583588;-58
2023/06/19 05:12:45;;;;;;;;;25.00;23.00;;;;;18.59;88.31;99596.16;6285313;20;3583680;-57
2023/06/19 05:15:14;;;;;;;;;26.33;25.33;;;;;18.43;87.72;99591.31;6286082;20;3584616;-57
2023/06/19 05:17:42;;;;;;;;;26.67;25.67;;;;;18.68;87.23;99591.69;6286929;20;3591991;-58
2023/06/19 05:20:11;;;;;;;;;26.00;24.67;;;;;18.50;89.09;99592.44;6289695;20;3594031;-53
2023/06/19 05:22:39;;;;;;;;;34.67;28.00;;;;;18.34;90.10;99597.66;6285573;20;3610702;-58
2023/06/19 05:25:08;;;;;;;;;30.00;27.00;;;;;18.63;90.10;99606.56;6288120;20;3604413;-53
2023/06/19 05:27:37;;;;;;;;;30.00;28.33;;;;;19.19;88.20;99610.22;6284176;20;3617152;-49
2023/06/19 05:30:06;;;;;;;;;30.33;29.00;;;;;19.45;84.93;99604.91;6286037;20;3596508;-49
2023/06/19 05:32:34;;;;;;;;;16.33;16.33;;;;;19.00;86.21;99599.44;6283879;20;3547145;-48
2023/06/19 05:35:02;;;;;;;;;26.33;26.00;;;;;19.14;87.56;99607.13;6287265;20;3588852;-46
2023/06/19 05:37:30;;;;;;;;;26.00;24.67;;;;;19.64;86.68;99605.78;6285320;20;3591936;-47
2023/06/19 05:39:59;;;;;;;;;30.00;28.00;;;;;19.50;86.44;99613.47;6286173;20;3599317;-53
2023/06/19 05:42:27;;;;;;;;;29.00;27.67;;;;;19.53;87.05;99615.88;6286033;20;3597624;-51
2023/06/19 05:44:55;;;;;;;;;32.33;30.67;;;;;19.48;86.14;99611.91;6286099;20;3593054;-48
2023/06/19 05:47:25;;;;;;;;;29.33;28.00;;;;;19.87;84.74;99617.97;6287921;20;3605609;-52
2023/06/19 05:49:54;;;;;;;;;27.67;27.67;;;;;20.76;81.69;99621.59;6284967;20;3603381;-52
2023/06/19 05:52:22;;;;;;;;;30.00;27.00;;;;;20.59;81.63;99616.03;6288177;20;3608657;-50
2023/06/19 05:54:53;;;;;;;;;25.33;25.00;;;;;20.72;81.75;99620.19;6287021;20;3603455;-47
2023/06/19 05:57:21;;;;;;;;;27.00;24.33;;;;;20.76;81.72;99629.78;6288208;20;3606558;-50
2023/06/19 05:59:50;;;;;;;;;29.00;25.33;;;;;20.56;82.95;99623.66;6283267;20;3604498;-49
2023/06/19 06:02:19;;;;;;;;;33.67;29.67;;;;;20.95;81.78;99636.88;6290187;20;3589855;-51
2023/06/19 06:04:48;;;;;;;;;28.33;27.00;;;;;21.03;80.90;99623.25;6286608;20;3592996;-48
2023/06/19 06:07:16;;;;;;;;;30.33;29.33;;;;;20.63;83.81;99622.03;6288682;20;3583631;-49
2023/06/19 06:09:44;;;;;;;;;26.67;25.67;;;;;20.78;84.74;99636.78;6285050;20;3591938;-47
2023/06/19 06:12:12;;;;;;;;;27.00;26.00;;;;;21.16;82.34;99629.13;6284479;20;3601422;-47
2023/06/19 06:14:41;;;;;;;;;26.67;24.33;;;;;21.62;80.63;99640.59;6286330;20;3594120;-49
2023/06/19 06:17:09;;;;;;;;;26.33;26.33;;;;;21.52;81.31;99637.16;6285176;20;3595103;-47
2023/06/19 06:19:38;;;;;;;;;25.00;24.00;;;;;21.96;79.44;99642.38;6285491;20;3602373;-51
2023/06/19 06:22:07;;;;;;;;;25.00;25.00;;;;;22.04;77.40;99647.00;6287072;20;3604429;-51
2023/06/19 06:24:35;;;;;;;;;21.00;19.67;;;;;22.75;76.79;99642.72;6285652;20;3557552;-50
2023/06/19 06:27:05;;;;;;;;;26.67;24.67;;;;;22.19;77.40;99647.19;6283481;20;3589839;-50
2023/06/19 06:29:33;;;;;;;;;25.33;25.33;;;;;22.64;76.22;99649.38;6282533;20;3595108;-51
2023/06/19 06:32:07;;;;;;;;;28.00;26.33;;;;;22.84;74.72;99657.25;6285730;20;3580531;-50
2023/06/19 06:34:35;;;;;;;;;24.33;23.33;;;;;22.93;74.20;99639.75;6286816;20;3598187;-49
2023/06/19 06:37:04;;;;;;;;;25.00;25.00;;;;;23.21;73.43;99643.81;6286796;20;3602442;-48
2023/06/19 06:39:34;;;;;;;;;26.33;26.33;;;;;23.23;73.33;99654.59;6311942;20;3600273;-50
2023/06/19 06:42:03;;;;;;;;;25.67;25.67;;;;;23.42;71.92;99659.66;6284161;20;3584683;-50
2023/06/19 06:44:31;;;;;;;;;26.00;26.00;;;;;23.56;70.88;99657.19;6283704;20;3602419;-51
2023/06/19 06:47:00;;;;;;;;;23.67;23.67;;;;;23.45;72.53;99656.53;6284154;20;3600530;-48
2023/06/19 06:49:28;;;;;;;;;23.00;23.00;;;;;23.82;69.95;99655.00;6285165;20;3598213;-53
2023/06/19 06:51:56;;;;;;;;;24.33;24.33;;;;;24.08;68.91;99662.03;6287175;20;3589843;-49
2023/06/19 06:54:25;;;;;;;;;22.67;21.00;;;;;24.42;68.57;99663.50;6284982;20;3582005;-52
2023/06/19 06:56:58;;;;;;;;;27.25;24.50;;;;;24.65;67.24;99663.50;6316466;20;3600257;-51
2023/06/19 06:59:27;;;;;;;;;20.00;20.00;;;;;24.77;66.71;99672.97;6313220;20;3579486;-51
2023/06/19 07:01:56;;;;;;;;;23.33;22.67;;;;;24.67;66.34;99670.50;6312983;20;3587743;-50
2023/06/19 07:04:25;;;;;;;;;21.67;21.67;;;;;25.31;66.03;99674.69;6315612;20;3594122;-49
2023/06/19 07:06:53;;;;;;;;;23.00;23.00;;;;;25.39;64.86;99672.66;6281685;20;3583725;-54
2023/06/19 07:09:22;;;;;;;;;23.67;23.00;;;;;25.01;64.24;99677.34;6284268;20;3589871;-52
2023/06/19 07:11:50;;;;;;;;;25.33;25.33;;;;;25.67;64.20;99671.94;6286061;20;3598234;-50
2023/06/19 07:14:21;;;;;;;;;21.00;21.00;;;;;25.78;62.74;99673.38;6285041;20;3579551;-48
2023/06/19 07:16:50;;;;;;;;;22.67;22.33;;;;;25.22;63.04;99673.03;6285594;20;3588792;-49
2023/06/19 07:19:18;;;;;;;;;22.67;22.67;;;;;25.90;59.51;99679.25;6283266;20;3592964;-51
2023/06/19 07:21:50;;;;;;;;;20.00;20.00;;;;;25.45;61.49;99676.53;6280930;20;3577595;-48
2023/06/19 07:24:18;;;;;;;;;19.00;19.00;;;;;25.61;62.04;99676.31;6312448;20;3567051;-50
2023/06/19 07:26:47;;;;;;;;;22.00;20.67;;;;;26.58;59.15;99671.50;6285344;20;3585664;-46
2023/06/19 07:29:15;;;;;;;;;23.00;22.00;;;;;26.33;60.27;99677.41;6281822;20;3579534;-51
2023/06/19 07:31:43;;;;;;;;;18.67;18.67;;;;;26.71;58.44;99668.84;6287209;20;3569127;-48
2023/06/19 07:34:11;;;;;;;;;22.67;21.33;;;;;26.47;55.91;99672.84;6280807;20;3582680;-49
2023/06/19 07:36:39;;;;;;;;;17.33;17.33;;;;;27.11;53.56;99672.72;6282984;20;3564941;-51
2023/06/19 07:39:08;;;;;;;;;22.00;20.33;;;;;26.59;55.13;99670.44;6284429;20;3578384;-52
2023/06/19 07:41:36;;;;;;;;;21.00;19.33;;;;;26.53;56.19;99665.72;6283829;20;3577885;-51
2023/06/19 07:44:05;;;;;;;;;19.00;17.00;;;;;26.63;57.08;99664.34;6285788;20;3573354;-46
2023/06/19 07:46:33;;;;;;;;;20.67;20.67;;;;;27.01;55.14;99674.16;6287525;20;3583658;-48
2023/06/19 07:49:01;;;;;;;;;20.33;19.33;;;;;27.36;54.60;99672.28;6282695;20;1894062;-50
2023/06/19 07:51:30;;;;;;;;;20.00;18.33;;;;;27.19;54.12;99677.28;6311534;20;3553510;-47
2023/06/19 07:53:58;;;;;;;;;19.00;18.00;;;;;26.52;55.87;99655.78;6313249;20;3565884;-48
2023/06/19 07:56:27;;;;;;;;;20.67;20.67;;;;;27.22;55.31;99668.59;6282589;20;3582543;-47
2023/06/19 07:58:55;;;;;;;;;21.00;20.00;;;;;27.33;53.72;99667.16;6282976;20;3585664;-48
2023/06/19 08:01:24;;;;;;;;;20.33;19.00;;;;;27.72;51.93;99666.50;6282480;20;3565892;-48
2023/06/19 08:03:52;;;;;;;;;19.33;18.00;;;;;27.76;53.02;99675.22;6313280;20;3569145;-46
2023/06/19 08:06:21;;;;;;;;;21.00;18.00;;;;;27.60;53.79;99670.91;6284198;20;3585816;-51
2023/06/19 08:08:49;;;;;;;;;18.00;18.00;;;;;27.91;53.31;99672.31;6285170;20;3575285;-49
2023/06/19 08:11:17;;;;;;;;;19.00;18.00;;;;;28.09;52.09;99663.47;6284396;20;3576426;-50
2023/06/19 08:13:45;;;;;;;;;17.00;17.00;;;;;27.91;50.54;99661.28;6282353;20;3572213;-49
2023/06/19 08:16:14;;;;;;;;;19.67;18.33;;;;;28.37;52.11;99660.53;6283352;20;3579448;-49
2023/06/19 08:18:44;;;;;;;;;19.33;19.00;;;;;28.04;53.08;99660.47;6283410;20;3578475;-49
2023/06/19 08:21:13;;;;;;;;;21.67;21.67;;;;;28.07;52.32;99666.44;6284807;20;3572236;-48
2023/06/19 08:23:43;;;;;;;;;18.33;17.33;;;;;28.40;52.97;99668.41;6284214;20;3557592;-51
2023/06/19 08:26:11;;;;;;;;;19.33;18.33;;;;;28.55;51.52;99662.72;6278432;20;3564998;-47
2023/06/19 08:28:43;;;;;;;;;18.50;18.50;;;;;28.97;47.57;99672.47;6276137;20;2827389;-50
2023/06/19 08:31:11;;;;;;;;;15.00;15.00;;;;;28.62;45.87;99669.06;6287681;20;3552375;-48
2023/06/19 08:33:39;;;;;;;;;16.00;16.00;;;;;28.46;46.31;99675.88;6280767;20;3571096;-52
2023/06/19 08:36:08;;;;;;;;;15.33;15.33;;;;;28.46;45.43;99675.88;6282625;20;3553089;-53
2023/06/19 08:38:36;;;;;;;;;15.00;15.00;;;;;29.08;44.77;99673.75;6279397;20;3539942;-54
2023/06/19 08:41:04;;;;;;;;;14.67;14.67;;;;;28.79;45.95;99663.97;6314378;20;3541017;-50
2023/06/19 08:43:32;;;;;;;;;16.00;16.00;;;;;28.65;46.31;99658.47;6277901;20;2830677;-51
2023/06/19 08:46:09;;;;;;;;;17.00;17.00;;;;;28.74;48.79;99655.47;6277030;20;3564848;-50
2023/06/19 08:48:38;;;;;;;;;18.00;16.33;;;;;29.08;47.37;99658.00;6282675;20;3558617;-53
2023/06/19 08:51:07;;;;;;;;;19.33;16.33;;;;;29.24;47.66;99664.16;6284718;20;3565604;-53
2023/06/19 08:53:47;;;;;;;;;16.67;16.33;;;;;29.51;44.82;99664.91;6285289;20;3555483;-49
2023/06/19 08:56:15;;;;;;;;;17.50;15.00;;;;;28.87;46.99;99656.31;6272881;20;2825317;-52
2023/06/19 08:58:43;;;;;;;;;18.50;17.00;;;;;29.71;44.73;99668.47;6279446;20;2825330;-54
2023/06/19 09:01:17;;;;;;;;;16.67;16.67;;;;;29.33;47.01;99662.84;6283994;20;3569162;-49
2023/06/19 09:03:46;;;;;;;;;17.00;16.00;;;;;29.14;43.20;99666.50;6282612;20;2487780;-51
2023/06/19 09:06:16;;;;;;;;;14.33;14.33;;;;;29.02;42.48;99669.91;6313660;20;3537910;-53
2023/06/19 09:08:44;;;;;;;;;14.00;12.00;;;;;28.93;42.60;99662.91;6314494;20;3501373;-48
2023/06/19 09:11:12;;;;;;;;;13.67;13.67;;;;;28.88;43.93;99657.16;6317130;20;3535724;-49
2023/06/19 09:13:40;;;;;;;;;18.67;16.67;;;;;28.22;44.51;99656.03;6282906;20;3567967;-52
2023/06/19 09:16:08;;;;;;;;;18.67;18.67;;;;;28.28;47.49;99657.16;6287085;20;3571296;-51
2023/06/19 09:18:48;;;;;;;;;14.33;13.33;;;;;29.05;46.39;99663.97;6287873;20;2487839;-52
2023/06/19 09:21:24;;;;;;;;;15.67;15.67;;;;;29.01;46.74;99659.91;6318862;20;3553378;-53
2023/06/19 09:23:53;;;;;;;;;18.67;15.00;;;;;29.47;44.08;99661.75;6288581;20;3555594;-50
2023/06/19 09:26:21;;;;;;;;;14.33;14.33;;;;;29.32;43.93;99663.91;6286080;20;2483753;-50
2023/06/19 09:28:50;;;;;;;;;15.33;15.33;;;;;29.88;43.06;99660.50;6317482;20;3550261;-50
2023/06/19 09:31:18;;;;;;;;;16.33;16.33;;;;;29.04;46.82;99656.75;6286329;20;3565889;-49
2023/06/19 09:33:46;;;;;;;;;18.50;16.00;;;;;29.94;45.68;99661.56;6283560;20;2822179;-52
2023/06/19 09:36:15;;;;;;;;;18.33;18.33;;;;;29.25;44.04;99663.06;6286610;20;3567058;-53
2023/06/19 09:38:47;;;;;;;;;14.00;14.00;;;;;29.47;45.21;99650.69;6283658;20;3535809;-52
2023/06/19 09:41:16;;;;;;;;;15.00;15.00;;;;;29.65;43.79;99652.78;6286754;20;3544053;-51
2023/06/19 09:43:47;;;;;;;;;17.50;14.00;;;;;29.79;43.44;99648.00;6282671;20;2831577;-50
2023/06/19 09:46:19;;;;;;;;;14.00;12.50;;;;;29.46;43.80;99648.97;6285514;20;2807722;-53
2023/06/19 09:48:52;;;;;;;;;15.50;15.50;;;;;29.41;41.91;99650.69;6282245;20;2817992;-53
2023/06/19 09:51:30;;;;;;;;;17.00;14.50;;;;;28.54;41.92;99645.28;6281428;20;2821118;-48
2023/06/19 09:54:00;;;;;;;;;17.00;15.50;;;;;29.26;43.37;99645.44;6285797;20;2823277;-54
2023/06/19 09:56:29;;;;;;;;;14.00;13.00;;;;;29.71;42.15;99651.03;6284397;20;3527429;-49
2023/06/19 09:59:00;;;;;;;;;12.67;12.67;;;;;30.02;41.52;99646.59;6315744;20;2483631;-48
2023/06/19 10:01:31;;;;;;;;;13.67;13.67;;;;;29.87;44.09;99647.75;6317065;20;2483763;-51
2023/06/19 10:04:11;;;;;;;;;16.33;15.67;;;;;30.23;41.67;99651.84;6316700;20;3560790;-51
2023/06/19 10:06:47;;;;;;;;;14.33;14.33;;;;;29.81;40.53;99645.03;6278601;20;3537998;-54
2023/06/19 10:09:19;;;;;;;;;14.00;14.00;;;;;29.06;41.85;99639.94;6283795;20;2804512;-50
2023/06/19 10:11:52;;;;;;;;;14.00;14.00;;;;;29.38;41.39;99627.06;6287220;20;2483633;-53
2023/06/19 10:14:22;;;;;;;;;14.00;14.00;;;;;29.84;39.94;99634.34;6318720;20;3529567;-51
2023/06/19 10:16:50;;;;;;;;;12.00;12.00;;;;;30.43;38.32;99636.97;6318410;20;3514839;-50
2023/06/19 10:19:22;;;;;;;;;14.00;12.67;;;;;30.36;38.03;99631.47;6316753;20;2483600;-54
2023/06/19 10:21:53;;;;;;;;;15.00;15.00;;;;;29.57;38.19;99629.97;6318629;20;3534651;-52
2023/06/19 10:24:24;;;;;;;;;13.00;13.00;;;;;30.22;37.11;99629.84;6316955;20;2806529;-54
2023/06/19 10:27:01;;;;;;;;;16.00;16.00;;;;;29.23;37.74;99626.50;6281728;20;2832683;-54
2023/06/19 10:29:40;;;;;;;;;17.00;16.00;;;;;29.31;37.09;99621.59;6315469;20;3556546;-50
2023/06/19 10:32:26;;;;;;;;;15.00;13.33;;;;;30.25;36.30;99630.28;6283313;20;2483606;-52
2023/06/19 10:34:55;;;;;;;;;14.00;14.00;;;;;30.11;36.74;99628.66;6315951;20;2803437;-55
2023/06/19 10:37:42;;;;;;;;;14.00;14.00;;;;;31.12;37.16;99629.53;6283515;20;2803690;-55
2023/06/19 10:40:12;;;;;;;;;14.33;14.33;;;;;30.16;37.61;99617.75;6284482;20;3536731;-55
2023/06/19 10:42:41;;;;;;;;;13.67;13.67;;;;;30.00;39.01;99626.59;6318624;20;3530557;-55
2023/06/19 10:45:13;;;;;;;;;18.33;16.33;;;;;30.32;37.66;99621.94;6316687;20;3564850;-48
2023/06/19 10:47:41;;;;;;;;;16.50;15.00;;;;;29.50;37.74;99608.72;6280645;20;2819120;-47
2023/06/19 10:50:12;;;;;;;;;17.33;16.33;;;;;30.40;38.81;99622.50;6287404;20;3561815;-47
2023/06/19 10:52:43;;;;;;;;;18.33;14.67;;;;;30.97;36.36;99621.59;6319850;20;3548209;-55
2023/06/19 10:55:12;;;;;;;;;14.33;12.33;;;;;31.00;36.57;99618.34;6319781;20;3523192;-54
2023/06/19 10:57:45;;;;;;;;;15.33;14.00;;;;;30.76;37.41;99626.47;6312811;20;3533589;-53
2023/06/19 11:00:34;;;;;;;;;13.00;13.00;;;;;31.69;35.51;99624.59;6317139;20;3537760;-49
2023/06/19 11:03:02;;;;;;;;;14.67;14.67;;;;;30.81;36.60;99612.78;6317845;20;3546144;-51
2023/06/19 11:05:31;;;;;;;;;16.00;14.00;;;;;30.12;38.00;99610.94;6284920;20;3551429;-57
2023/06/19 11:07:59;;;;;;;;;15.00;15.00;;;;;30.42;37.21;99618.66;6286673;20;3534694;-53
2023/06/19 11:10:29;;;;;;;;;15.00;15.00;;;;;30.48;36.78;99612.22;6282948;20;3546086;-53